Terminal Aerodrome Forecast
Issued by NWS

Home | Current Version | Previous Version | Text Only | Print | Product List | Glossary On
Versions: 1 2 3 4 5 6 7 8 9 10 11 12 13 14 15 16 17 18 19
856
FTUS41 KAKQ 301845 AAA
TAFPHF
TAF AMD
KPHF 301845Z 3019/3118 08005KT 2SM -RA BR BKN007 OVC010
     FM302000 08004KT 5SM -RA BR SCT007 OVC015
      TEMPO 3021/3024 BKN007
     FM310000 VRB02KT P6SM OVC010
     FM310600 00000KT 2SM BR OVC004
     FM311300 02004KT P6SM OVC025=

USA.gov is the U.S. government's official web portal to all federal, state and local government web resources and services.